sensor_id;sensor_type;location;lat;lon;timestamp;P1;durP1;ratioP1;P2;durP2;ratioP2
19645;SDS011;9971;52.446;13.452;2022-11-18T00:03:53;16.37;;;14.78;;
19645;SDS011;9971;52.446;13.452;2022-11-18T00:08:56;15.70;;;14.10;;
19645;SDS011;9971;52.446;13.452;2022-11-18T00:13:58;15.63;;;14.10;;
19645;SDS011;9971;52.446;13.452;2022-11-18T00:19:05;15.57;;;14.00;;
19645;SDS011;9971;52.446;13.452;2022-11-18T00:24:08;15.75;;;13.55;;
19645;SDS011;9971;52.446;13.452;2022-11-18T00:29:10;16.82;;;15.13;;
19645;SDS011;9971;52.446;13.452;2022-11-18T00:34:14;15.78;;;14.05;;
19645;SDS011;9971;52.446;13.452;2022-11-18T00:39:16;15.67;;;14.13;;
19645;SDS011;9971;52.446;13.452;2022-11-18T00:44:17;16.67;;;15.07;;
19645;SDS011;9971;52.446;13.452;2022-11-18T00:49:20;16.07;;;14.53;;
19645;SDS011;9971;52.446;13.452;2022-11-18T00:54:22;16.37;;;14.63;;
19645;SDS011;9971;52.446;13.452;2022-11-18T00:59:24;15.03;;;13.58;;
19645;SDS011;9971;52.446;13.452;2022-11-18T01:04:26;15.58;;;13.95;;
19645;SDS011;9971;52.446;13.452;2022-11-18T01:09:29;15.45;;;13.90;;
19645;SDS011;9971;52.446;13.452;2022-11-18T01:14:31;15.50;;;13.85;;
19645;SDS011;9971;52.446;13.452;2022-11-18T01:19:34;15.20;;;13.60;;
19645;SDS011;9971;52.446;13.452;2022-11-18T01:24:36;14.45;;;13.05;;
19645;SDS011;9971;52.446;13.452;2022-11-18T01:29:39;15.85;;;14.25;;
19645;SDS011;9971;52.446;13.452;2022-11-18T01:34:41;14.85;;;13.45;;
19645;SDS011;9971;52.446;13.452;2022-11-18T01:39:44;15.03;;;13.50;;
19645;SDS011;9971;52.446;13.452;2022-11-18T01:50:06;13.27;;;12.07;;
19645;SDS011;9971;52.446;13.452;2022-11-18T01:55:10;13.80;;;12.50;;
19645;SDS011;9971;52.446;13.452;2022-11-18T02:00:11;12.73;;;11.53;;
19645;SDS011;9971;52.446;13.452;2022-11-18T02:05:14;12.68;;;11.57;;
19645;SDS011;9971;52.446;13.452;2022-11-18T02:10:18;13.97;;;12.67;;
19645;SDS011;9971;52.446;13.452;2022-11-18T02:15:20;13.88;;;12.50;;
19645;SDS011;9971;52.446;13.452;2022-11-18T02:20:27;14.03;;;12.35;;
19645;SDS011;9971;52.446;13.452;2022-11-18T02:31:14;15.30;;;13.00;;
19645;SDS011;9971;52.446;13.452;2022-11-18T02:36:01;12.50;;;11.20;;
19645;SDS011;9971;52.446;13.452;2022-11-18T02:41:06;13.60;;;12.30;;
19645;SDS011;9971;52.446;13.452;2022-11-18T02:46:08;13.90;;;12.53;;
19645;SDS011;9971;52.446;13.452;2022-11-18T02:51:09;14.00;;;12.70;;
19645;SDS011;9971;52.446;13.452;2022-11-18T02:56:11;14.60;;;13.07;;
19645;SDS011;9971;52.446;13.452;2022-11-18T03:01:17;15.37;;;13.87;;
19645;SDS011;9971;52.446;13.452;2022-11-18T03:06:22;14.73;;;13.23;;
19645;SDS011;9971;52.446;13.452;2022-11-18T03:11:27;14.73;;;13.23;;
19645;SDS011;9971;52.446;13.452;2022-11-18T03:16:30;13.25;;;12.05;;
19645;SDS011;9971;52.446;13.452;2022-11-18T03:21:33;13.40;;;12.20;;
19645;SDS011;9971;52.446;13.452;2022-11-18T03:26:35;14.53;;;13.23;;
19645;SDS011;9971;52.446;13.452;2022-11-18T03:31:38;15.67;;;14.10;;
19645;SDS011;9971;52.446;13.452;2022-11-18T03:36:41;14.70;;;13.33;;
19645;SDS011;9971;52.446;13.452;2022-11-18T03:41:44;15.30;;;13.90;;
19645;SDS011;9971;52.446;13.452;2022-11-18T03:46:47;14.78;;;13.45;;
19645;SDS011;9971;52.446;13.452;2022-11-18T03:51:49;15.05;;;13.60;;
19645;SDS011;9971;52.446;13.452;2022-11-18T03:56:55;15.38;;;13.88;;
19645;SDS011;9971;52.446;13.452;2022-11-18T04:01:57;15.63;;;14.13;;
19645;SDS011;9971;52.446;13.452;2022-11-18T04:12:23;16.23;;;14.63;;
19645;SDS011;9971;52.446;13.452;2022-11-18T04:17:26;14.75;;;13.38;;
19645;SDS011;9971;52.446;13.452;2022-11-18T04:22:27;16.47;;;14.87;;
19645;SDS011;9971;52.446;13.452;2022-11-18T04:27:30;15.20;;;13.78;;
19645;SDS011;9971;52.446;13.452;2022-11-18T04:32:32;16.95;;;15.28;;
19645;SDS011;9971;52.446;13.452;2022-11-18T04:37:35;16.05;;;14.45;;
19645;SDS011;9971;52.446;13.452;2022-11-18T04:42:37;17.12;;;15.43;;
19645;SDS011;9971;52.446;13.452;2022-11-18T04:47:40;18.12;;;16.32;;
19645;SDS011;9971;52.446;13.452;2022-11-18T04:52:43;17.27;;;15.63;;
19645;SDS011;9971;52.446;13.452;2022-11-18T04:57:46;17.82;;;16.05;;
19645;SDS011;9971;52.446;13.452;2022-11-18T05:02:49;18.10;;;16.27;;
19645;SDS011;9971;52.446;13.452;2022-11-18T05:07:52;18.52;;;16.62;;
19645;SDS011;9971;52.446;13.452;2022-11-18T05:12:56;18.00;;;16.10;;
19645;SDS011;9971;52.446;13.452;2022-11-18T05:17:59;20.20;;;18.07;;
19645;SDS011;9971;52.446;13.452;2022-11-18T05:23:02;19.80;;;17.75;;
19645;SDS011;9971;52.446;13.452;2022-11-18T05:28:05;19.95;;;17.98;;
19645;SDS011;9971;52.446;13.452;2022-11-18T05:33:08;20.23;;;18.10;;
19645;SDS011;9971;52.446;13.452;2022-11-18T05:38:11;20.80;;;18.57;;
19645;SDS011;9971;52.446;13.452;2022-11-18T05:43:14;20.88;;;18.67;;
19645;SDS011;9971;52.446;13.452;2022-11-18T05:48:18;20.30;;;18.30;;
19645;SDS011;9971;52.446;13.452;2022-11-18T05:53:21;20.32;;;18.30;;
19645;SDS011;9971;52.446;13.452;2022-11-18T05:58:22;20.48;;;17.95;;
19645;SDS011;9971;52.446;13.452;2022-11-18T06:03:25;20.77;;;18.67;;
19645;SDS011;9971;52.446;13.452;2022-11-18T06:08:29;18.98;;;17.02;;
19645;SDS011;9971;52.446;13.452;2022-11-18T06:13:33;18.80;;;15.93;;
19645;SDS011;9971;52.446;13.452;2022-11-18T06:18:32;19.02;;;16.62;;
19645;SDS011;9971;52.446;13.452;2022-11-18T06:23:35;18.77;;;16.75;;
19645;SDS011;9971;52.446;13.452;2022-11-18T06:28:37;17.75;;;15.55;;
19645;SDS011;9971;52.446;13.452;2022-11-18T06:33:40;16.40;;;14.65;;
19645;SDS011;9971;52.446;13.452;2022-11-18T06:38:42;15.60;;;13.98;;
19645;SDS011;9971;52.446;13.452;2022-11-18T06:43:45;17.00;;;13.75;;
19645;SDS011;9971;52.446;13.452;2022-11-18T06:48:48;14.47;;;12.98;;
19645;SDS011;9971;52.446;13.452;2022-11-18T06:53:50;15.03;;;13.53;;
19645;SDS011;9971;52.446;13.452;2022-11-18T06:58:53;14.53;;;12.63;;
19645;SDS011;9971;52.446;13.452;2022-11-18T07:05:39;14.93;;;13.33;;
19645;SDS011;9971;52.446;13.452;2022-11-18T07:10:41;14.45;;;13.00;;
19645;SDS011;9971;52.446;13.452;2022-11-18T07:15:44;15.27;;;13.30;;
19645;SDS011;9971;52.446;13.452;2022-11-18T07:20:46;14.65;;;12.37;;
19645;SDS011;9971;52.446;13.452;2022-11-18T07:28:50;14.78;;;13.08;;
19645;SDS011;9971;52.446;13.452;2022-11-18T07:33:52;15.73;;;13.07;;
19645;SDS011;9971;52.446;13.452;2022-11-18T07:44:02;15.07;;;12.93;;
19645;SDS011;9971;52.446;13.452;2022-11-18T07:49:05;14.73;;;13.08;;
19645;SDS011;9971;52.446;13.452;2022-11-18T07:54:07;13.73;;;12.33;;
19645;SDS011;9971;52.446;13.452;2022-11-18T07:59:08;14.68;;;13.13;;
19645;SDS011;9971;52.446;13.452;2022-11-18T08:10:48;16.03;;;14.60;;
19645;SDS011;9971;52.446;13.452;2022-11-18T08:15:51;14.47;;;13.08;;
19645;SDS011;9971;52.446;13.452;2022-11-18T08:20:53;14.68;;;13.05;;
19645;SDS011;9971;52.446;13.452;2022-11-18T08:26:00;14.25;;;12.75;;
19645;SDS011;9971;52.446;13.452;2022-11-18T08:31:15;15.13;;;13.70;;
19645;SDS011;9971;52.446;13.452;2022-11-18T09:10:02;11.63;;;10.53;;
19645;SDS011;9971;52.446;13.452;2022-11-18T09:15:05;12.55;;;11.33;;
19645;SDS011;9971;52.446;13.452;2022-11-18T09:20:08;9.98;;;8.98;;
19645;SDS011;9971;52.446;13.452;2022-11-18T09:25:11;1.50;;;1.02;;
19645;SDS011;9971;52.446;13.452;2022-11-18T09:47:32;11.40;;;10.30;;
19645;SDS011;9971;52.446;13.452;2022-11-18T09:52:37;9.98;;;9.00;;
19645;SDS011;9971;52.446;13.452;2022-11-18T09:57:38;9.43;;;8.63;;
19645;SDS011;9971;52.446;13.452;2022-11-18T10:02:51;9.10;;;8.17;;
19645;SDS011;9971;52.446;13.452;2022-11-18T10:30:42;7.17;;;6.57;;
19645;SDS011;9971;52.446;13.452;2022-11-18T10:35:45;7.53;;;6.80;;
19645;SDS011;9971;52.446;13.452;2022-11-18T10:52:15;6.97;;;6.37;;
19645;SDS011;9971;52.446;13.452;2022-11-18T10:57:17;6.55;;;5.95;;
19645;SDS011;9971;52.446;13.452;2022-11-18T11:02:51;6.27;;;5.67;;
19645;SDS011;9971;52.446;13.452;2022-11-18T11:07:39;6.63;;;5.93;;
19645;SDS011;9971;52.446;13.452;2022-11-18T11:22:00;6.90;;;6.20;;
19645;SDS011;9971;52.446;13.452;2022-11-18T11:27:04;7.70;;;6.92;;
19645;SDS011;9971;52.446;13.452;2022-11-18T11:37:28;7.23;;;6.43;;
19645;SDS011;9971;52.446;13.452;2022-11-18T11:42:33;6.90;;;6.30;;
19645;SDS011;9971;52.446;13.452;2022-11-18T11:55:21;6.47;;;5.87;;
19645;SDS011;9971;52.446;13.452;2022-11-18T12:00:39;6.70;;;6.03;;
19645;SDS011;9971;52.446;13.452;2022-11-18T12:05:41;6.97;;;6.10;;
19645;SDS011;9971;52.446;13.452;2022-11-18T12:10:49;6.70;;;6.10;;
19645;SDS011;9971;52.446;13.452;2022-11-18T12:16:00;7.43;;;6.63;;
19645;SDS011;9971;52.446;13.452;2022-11-18T12:21:02;6.13;;;5.33;;
19645;SDS011;9971;52.446;13.452;2022-11-18T12:26:05;8.43;;;6.77;;
19645;SDS011;9971;52.446;13.452;2022-11-18T12:36:35;7.63;;;6.47;;
19645;SDS011;9971;52.446;13.452;2022-11-18T12:47:02;5.13;;;4.73;;
19645;SDS011;9971;52.446;13.452;2022-11-18T12:52:06;6.10;;;5.50;;
19645;SDS011;9971;52.446;13.452;2022-11-18T12:57:14;5.78;;;5.28;;
19645;SDS011;9971;52.446;13.452;2022-11-18T13:02:19;5.60;;;5.10;;
19645;SDS011;9971;52.446;13.452;2022-11-18T13:07:20;6.23;;;5.63;;
19645;SDS011;9971;52.446;13.452;2022-11-18T13:12:28;5.83;;;5.23;;
19645;SDS011;9971;52.446;13.452;2022-11-18T13:17:31;4.93;;;4.53;;
19645;SDS011;9971;52.446;13.452;2022-11-18T13:22:39;5.67;;;4.97;;
19645;SDS011;9971;52.446;13.452;2022-11-18T13:27:48;5.37;;;4.87;;
19645;SDS011;9971;52.446;13.452;2022-11-18T13:32:48;5.50;;;5.00;;
19645;SDS011;9971;52.446;13.452;2022-11-18T13:37:54;5.75;;;5.12;;
19645;SDS011;9971;52.446;13.452;2022-11-18T13:42:57;4.87;;;4.37;;
19645;SDS011;9971;52.446;13.452;2022-11-18T13:48:01;4.72;;;4.33;;
19645;SDS011;9971;52.446;13.452;2022-11-18T13:58:23;4.30;;;3.90;;
19645;SDS011;9971;52.446;13.452;2022-11-18T14:03:27;4.23;;;3.90;;
19645;SDS011;9971;52.446;13.452;2022-11-18T14:08:34;4.77;;;4.37;;
19645;SDS011;9971;52.446;13.452;2022-11-18T14:13:36;5.43;;;4.90;;
19645;SDS011;9971;52.446;13.452;2022-11-18T14:18:37;5.10;;;4.60;;
19645;SDS011;9971;52.446;13.452;2022-11-18T14:23:41;4.73;;;4.33;;
19645;SDS011;9971;52.446;13.452;2022-11-18T14:28:41;4.50;;;4.10;;
19645;SDS011;9971;52.446;13.452;2022-11-18T14:34:02;3.87;;;3.57;;
19645;SDS011;9971;52.446;13.452;2022-11-18T14:38:46;4.43;;;4.03;;
19645;SDS011;9971;52.446;13.452;2022-11-18T14:43:48;3.85;;;3.55;;
19645;SDS011;9971;52.446;13.452;2022-11-18T14:48:50;5.45;;;3.72;;
19645;SDS011;9971;52.446;13.452;2022-11-18T14:53:53;4.03;;;3.60;;
19645;SDS011;9971;52.446;13.452;2022-11-18T14:58:56;4.87;;;4.37;;
19645;SDS011;9971;52.446;13.452;2022-11-18T15:03:58;4.28;;;3.87;;
19645;SDS011;9971;52.446;13.452;2022-11-18T15:09:00;5.22;;;3.65;;
19645;SDS011;9971;52.446;13.452;2022-11-18T15:14:02;8.10;;;4.97;;
19645;SDS011;9971;52.446;13.452;2022-11-18T15:19:08;5.20;;;4.70;;
19645;SDS011;9971;52.446;13.452;2022-11-18T15:24:07;5.20;;;4.70;;
19645;SDS011;9971;52.446;13.452;2022-11-18T15:29:13;5.17;;;4.67;;
19645;SDS011;9971;52.446;13.452;2022-11-18T15:34:13;4.63;;;3.90;;
19645;SDS011;9971;52.446;13.452;2022-11-18T15:39:15;4.67;;;4.17;;
19645;SDS011;9971;52.446;13.452;2022-11-18T15:44:18;4.15;;;3.75;;
19645;SDS011;9971;52.446;13.452;2022-11-18T15:49:20;5.55;;;4.62;;
19645;SDS011;9971;52.446;13.452;2022-11-18T15:54:22;4.92;;;4.35;;
19645;SDS011;9971;52.446;13.452;2022-11-18T15:59:25;7.60;;;6.50;;
19645;SDS011;9971;52.446;13.452;2022-11-18T16:04:27;6.22;;;5.72;;
19645;SDS011;9971;52.446;13.452;2022-11-18T16:09:30;8.50;;;6.45;;
19645;SDS011;9971;52.446;13.452;2022-11-18T16:14:39;7.70;;;6.40;;
19645;SDS011;9971;52.446;13.452;2022-11-18T16:19:41;5.25;;;4.72;;
19645;SDS011;9971;52.446;13.452;2022-11-18T16:24:44;5.30;;;4.80;;
19645;SDS011;9971;52.446;13.452;2022-11-18T16:29:46;13.22;;;10.80;;
19645;SDS011;9971;52.446;13.452;2022-11-18T16:34:49;16.27;;;12.53;;
19645;SDS011;9971;52.446;13.452;2022-11-18T16:39:52;11.87;;;8.20;;
19645;SDS011;9971;52.446;13.452;2022-11-18T16:44:54;7.37;;;5.60;;
19645;SDS011;9971;52.446;13.452;2022-11-18T16:49:57;8.85;;;7.85;;
19645;SDS011;9971;52.446;13.452;2022-11-18T16:54:59;9.13;;;6.97;;
19645;SDS011;9971;52.446;13.452;2022-11-18T17:00:03;10.32;;;8.25;;
19645;SDS011;9971;52.446;13.452;2022-11-18T17:05:05;16.65;;;10.03;;
19645;SDS011;9971;52.446;13.452;2022-11-18T17:10:08;16.77;;;10.38;;
19645;SDS011;9971;52.446;13.452;2022-11-18T17:15:12;11.67;;;7.50;;
19645;SDS011;9971;52.446;13.452;2022-11-18T17:20:13;23.30;;;17.15;;
19645;SDS011;9971;52.446;13.452;2022-11-18T17:25:16;29.00;;;22.02;;
19645;SDS011;9971;52.446;13.452;2022-11-18T17:55:19;8.23;;;6.83;;
19645;SDS011;9971;52.446;13.452;2022-11-18T18:00:22;7.03;;;6.27;;
19645;SDS011;9971;52.446;13.452;2022-11-18T18:05:24;6.40;;;5.55;;
19645;SDS011;9971;52.446;13.452;2022-11-18T18:10:26;10.25;;;9.05;;
19645;SDS011;9971;52.446;13.452;2022-11-18T18:15:29;11.73;;;10.20;;
19645;SDS011;9971;52.446;13.452;2022-11-18T18:20:32;38.98;;;24.00;;
19645;SDS011;9971;52.446;13.452;2022-11-18T18:50:34;7.20;;;6.50;;
19645;SDS011;9971;52.446;13.452;2022-11-18T18:55:36;7.83;;;5.92;;
19645;SDS011;9971;52.446;13.452;2022-11-18T19:00:39;8.80;;;7.92;;
19645;SDS011;9971;52.446;13.452;2022-11-18T19:05:41;8.48;;;6.33;;
19645;SDS011;9971;52.446;13.452;2022-11-18T19:10:44;9.43;;;7.20;;
19645;SDS011;9971;52.446;13.452;2022-11-18T19:15:46;8.55;;;6.37;;
19645;SDS011;9971;52.446;13.452;2022-11-18T19:20:49;9.85;;;7.87;;
19645;SDS011;9971;52.446;13.452;2022-11-18T19:25:58;8.77;;;7.83;;
19645;SDS011;9971;52.446;13.452;2022-11-18T19:31:00;8.28;;;7.47;;
19645;SDS011;9971;52.446;13.452;2022-11-18T19:36:03;9.68;;;7.85;;
19645;SDS011;9971;52.446;13.452;2022-11-18T19:41:06;9.20;;;8.27;;
19645;SDS011;9971;52.446;13.452;2022-11-18T19:46:06;18.30;;;14.28;;
19645;SDS011;9971;52.446;13.452;2022-11-18T19:51:10;13.48;;;10.38;;
19645;SDS011;9971;52.446;13.452;2022-11-18T19:56:12;15.25;;;12.47;;
19645;SDS011;9971;52.446;13.452;2022-11-18T20:01:16;17.48;;;12.53;;
19645;SDS011;9971;52.446;13.452;2022-11-18T20:06:19;21.13;;;16.10;;
19645;SDS011;9971;52.446;13.452;2022-11-18T20:13:25;11.43;;;8.63;;
19645;SDS011;9971;52.446;13.452;2022-11-18T20:18:27;10.00;;;8.55;;
19645;SDS011;9971;52.446;13.452;2022-11-18T20:23:30;8.33;;;7.05;;
